Time;durP1;ratioP1;P1;durP2;ratioP2;P2;SDS_P1;SDS_P2;PMS_P1;PMS_P2;Temp;Humidity;BMP_temperature;BMP_pressure;BME280_temperature;BME280_humidity;BME280_pressure;Samples;Min_cycle;Max_cycle;Signal;HPM_P1;HPM_P2
2023/01/21 00:01:08;;;;;;;3.20;2.22;;;;;;;;;;5064470;28;20024;-84
2023/01/21 00:03:33;;;;;;;4.50;3.10;;;;;;;;;;5063569;28;20032;-86
2023/01/21 00:05:59;;;;;;;4.70;4.20;;;;;;;;;;5063076;28;20025;-86
2023/01/21 00:08:25;;;;;;;4.90;3.55;;;;;;;;;;5062810;28;20021;-86
2023/01/21 00:10:50;;;;;;;4.85;3.45;;;;;;;;;;5064751;28;20025;-86
2023/01/21 00:13:16;;;;;;;8.73;4.85;;;;;;;;;;5065502;28;20028;-86
2023/01/21 00:15:42;;;;;;;4.78;3.00;;;;;;;;;;5065547;28;20104;-86
2023/01/21 00:18:08;;;;;;;5.07;3.58;;;;;;;;;;5062707;28;20020;-85
2023/01/21 00:20:33;;;;;;;8.38;4.15;;;;;;;;;;5060162;28;20032;-87
2023/01/21 00:22:59;;;;;;;5.93;3.17;;;;;;;;;;5066176;28;20037;-85
2023/01/21 00:25:24;;;;;;;5.78;3.28;;;;;;;;;;5062961;28;20036;-85
2023/01/21 00:27:50;;;;;;;6.57;2.65;;;;;;;;;;5066691;28;20020;-84
2023/01/21 00:30:16;;;;;;;3.53;1.98;;;;;;;;;;5055377;28;20098;-83
2023/01/21 00:32:41;;;;;;;3.33;2.42;;;;;;;;;;5060494;28;20036;-85
2023/01/21 00:35:07;;;;;;;5.60;3.17;;;;;;;;;;5067581;28;20032;-83
2023/01/21 00:37:33;;;;;;;4.53;3.75;;;;;;;;;;5066836;28;20163;-85
2023/01/21 00:39:59;;;;;;;6.40;4.20;;;;;;;;;;5060196;28;20052;-81
2023/01/21 00:42:26;;;;;;;5.53;3.17;;;;;;;;;;5063058;28;20032;-83
2023/01/21 00:44:52;;;;;;;8.68;3.33;;;;;;;;;;5059678;28;20020;-85
2023/01/21 00:47:17;;;;;;;5.95;4.18;;;;;;;;;;5059232;28;20154;-84
2023/01/21 00:49:43;;;;;;;6.05;3.83;;;;;;;;;;5061561;28;20033;-84
2023/01/21 00:52:08;;;;;;;5.75;3.83;;;;;;;;;;5065049;28;20016;-84
2023/01/21 00:54:33;;;;;;;5.38;2.72;;;;;;;;;;5064793;28;20060;-83
2023/01/21 00:56:59;;;;;;;6.97;3.20;;;;;;;;;;5058517;28;20396;-84
2023/01/21 00:59:26;;;;;;;4.88;3.63;;;;;;;;;;5064057;28;20020;-83
2023/01/21 01:01:52;;;;;;;8.70;3.70;;;;;;;;;;5059325;28;20070;-84
2023/01/21 01:04:18;;;;;;;7.97;4.32;;;;;;;;;;5062082;28;20453;-83
2023/01/21 01:06:44;;;;;;;5.60;2.75;;;;;;;;;;5060973;28;20024;-83
2023/01/21 01:09:11;;;;;;;7.00;3.25;;;;;;;;;;5061296;28;20054;-83
2023/01/21 01:11:37;;;;;;;3.58;2.55;;;;;;;;;;5062971;28;20028;-84
2023/01/21 01:14:03;;;;;;;8.30;4.07;;;;;;;;;;5060490;28;20033;-83
2023/01/21 01:16:29;;;;;;;6.28;2.78;;;;;;;;;;5057755;28;20108;-84
2023/01/21 01:18:54;;;;;;;6.15;3.20;;;;;;;;;;5066962;28;20028;-84
2023/01/21 01:21:20;;;;;;;5.18;3.42;;;;;;;;;;5063480;28;20025;-83
2023/01/21 01:23:47;;;;;;;2.75;2.20;;;;;;;;;;5060338;28;20029;-83
2023/01/21 01:26:15;;;;;;;4.90;3.13;;;;;;;;;;5063030;28;20498;-84
2023/01/21 01:28:40;;;;;;;8.43;4.65;;;;;;;;;;5061950;28;20380;-83
2023/01/21 01:31:09;;;;;;;6.00;3.97;;;;;;;;;;5060753;28;20020;-84
2023/01/21 01:33:35;;;;;;;7.43;3.23;;;;;;;;;;5058457;28;20044;-84
2023/01/21 01:36:02;;;;;;;7.85;3.92;;;;;;;;;;5061941;28;20273;-84
2023/01/21 01:38:27;;;;;;;5.40;3.38;;;;;;;;;;5059552;28;20033;-84
2023/01/21 01:40:53;;;;;;;10.80;3.80;;;;;;;;;;5061610;28;20032;-84
2023/01/21 01:43:24;;;;;;;3.75;2.03;;;;;;;;;;5062597;28;20544;-82
2023/01/21 01:45:50;;;;;;;6.65;4.68;;;;;;;;;;5061085;28;20743;-82
2023/01/21 01:48:27;;;;;;;6.40;3.95;;;;;;;;;;5054333;28;20028;-82
2023/01/21 01:50:56;;;;;;;6.10;3.92;;;;;;;;;;5066107;28;20445;-82
2023/01/21 01:53:22;;;;;;;6.78;2.92;;;;;;;;;;5059554;28;20021;-83
2023/01/21 01:55:48;;;;;;;7.20;3.22;;;;;;;;;;5061489;28;20025;-82
2023/01/21 01:58:15;;;;;;;6.65;3.15;;;;;;;;;;5060359;28;20028;-83
2023/01/21 02:00:41;;;;;;;7.30;3.28;;;;;;;;;;5061332;28;20492;-82
2023/01/21 02:05:52;;;;;;;4.72;3.30;;;;;;;;;;5058692;28;20032;-83
2023/01/21 02:08:19;;;;;;;12.68;4.22;;;;;;;;;;5058750;28;20039;-83
2023/01/21 02:10:44;;;;;;;5.88;2.50;;;;;;;;;;5060915;28;20029;-81
2023/01/21 02:13:10;;;;;;;6.38;3.88;;;;;;;;;;5052501;28;20400;-82
2023/01/21 02:15:47;;;;;;;5.38;3.75;;;;;;;;;;5060753;28;20090;-83
2023/01/21 02:18:57;;;;;;;5.07;4.43;;;;;;;;;;5060386;28;20120;-84
2023/01/21 02:21:42;;;;;;;5.13;4.13;;;;;;;;;;5056955;28;20523;-83
2023/01/21 02:24:38;;;;;;;5.95;2.85;;;;;;;;;;5061479;28;20029;-83
2023/01/21 02:27:29;;;;;;;5.68;3.08;;;;;;;;;;5062468;28;20017;-83
2023/01/21 02:30:07;;;;;;;5.57;4.03;;;;;;;;;;5066174;28;20063;-82
2023/01/21 02:32:57;;;;;;;5.15;2.67;;;;;;;;;;5060074;28;20033;-84
2023/01/21 02:35:30;;;;;;;3.55;1.98;;;;;;;;;;5058938;28;20090;-82
2023/01/21 02:38:06;;;;;;;3.97;3.35;;;;;;;;;;5062173;28;20025;-82
2023/01/21 02:41:03;;;;;;;3.13;2.47;;;;;;;;;;5056575;28;20025;-84
2023/01/21 02:43:46;;;;;;;4.88;2.78;;;;;;;;;;5050052;28;20536;-82
2023/01/21 02:46:18;;;;;;;6.75;4.00;;;;;;;;;;5065518;28;20457;-83
2023/01/21 02:48:56;;;;;;;6.05;3.38;;;;;;;;;;5062936;28;20132;-84
2023/01/21 02:51:23;;;;;;;4.28;2.25;;;;;;;;;;5059171;28;20083;-84
2023/01/21 02:53:48;;;;;;;5.65;2.40;;;;;;;;;;5060390;28;20036;-84
2023/01/21 02:56:18;;;;;;;4.00;2.63;;;;;;;;;;5059151;28;20108;-82
2023/01/21 02:58:53;;;;;;;4.47;2.08;;;;;;;;;;5057358;28;20093;-83
2023/01/21 03:01:45;;;;;;;4.90;2.47;;;;;;;;;;5058463;28;20025;-81
2023/01/21 03:04:46;;;;;;;6.32;2.83;;;;;;;;;;5059829;28;20085;-83
2023/01/21 03:07:24;;;;;;;5.07;2.50;;;;;;;;;;5061053;28;20024;-82
2023/01/21 03:09:50;;;;;;;3.35;3.05;;;;;;;;;;5063718;28;20024;-83
2023/01/21 03:12:44;;;;;;;5.45;2.35;;;;;;;;;;5061270;28;20031;-83
2023/01/21 03:18:40;;;;;;;2.90;2.03;;;;;;;;;;5058776;28;20536;-83
2023/01/21 03:21:09;;;;;;;5.30;2.75;;;;;;;;;;5062448;28;20464;-83
2023/01/21 03:23:41;;;;;;;6.63;3.65;;;;;;;;;;5061126;28;20028;-84
2023/01/21 03:26:10;;;;;;;5.90;3.40;;;;;;;;;;5061236;28;20028;-83
2023/01/21 03:28:41;;;;;;;5.35;3.25;;;;;;;;;;5065733;28;20465;-83
2023/01/21 03:31:12;;;;;;;4.15;2.50;;;;;;;;;;5066966;28;20090;-82
2023/01/21 03:33:40;;;;;;;4.18;2.53;;;;;;;;;;5061956;28;20092;-85
2023/01/21 03:36:33;;;;;;;3.95;2.60;;;;;;;;;;5060482;28;20456;-84
2023/01/21 03:39:04;;;;;;;2.22;1.95;;;;;;;;;;5066630;28;20032;-82
2023/01/21 03:41:35;;;;;;;6.85;3.13;;;;;;;;;;5064322;28;20031;-83
2023/01/21 03:44:00;;;;;;;4.13;2.05;;;;;;;;;;5065220;28;20051;-83
2023/01/21 03:46:40;;;;;;;4.22;2.63;;;;;;;;;;5057857;28;20131;-82
2023/01/21 03:49:22;;;;;;;2.83;2.17;;;;;;;;;;5065974;28;20021;-84
2023/01/21 03:51:52;;;;;;;2.97;2.22;;;;;;;;;;5061977;28;20036;-80
2023/01/21 03:54:18;;;;;;;5.70;2.30;;;;;;;;;;5063375;28;20024;-81
2023/01/21 03:56:43;;;;;;;5.47;3.10;;;;;;;;;;5062045;28;20464;-83
2023/01/21 03:59:09;;;;;;;5.75;2.70;;;;;;;;;;5066000;28;20378;-84
2023/01/21 04:01:34;;;;;;;2.67;2.03;;;;;;;;;;5061641;28;20025;-84
2023/01/21 04:03:59;;;;;;;4.82;2.63;;;;;;;;;;5063870;28;20032;-83
2023/01/21 04:06:25;;;;;;;1.73;1.33;;;;;;;;;;5067478;28;20029;-82
2023/01/21 04:08:50;;;;;;;4.97;1.95;;;;;;;;;;5060731;28;20029;-85
2023/01/21 04:11:16;;;;;;;4.35;2.83;;;;;;;;;;5066264;28;20032;-84
2023/01/21 04:13:41;;;;;;;6.97;3.80;;;;;;;;;;5061858;28;20055;-86
2023/01/21 04:16:07;;;;;;;4.00;2.92;;;;;;;;;;5061732;28;20025;-84
2023/01/21 04:18:33;;;;;;;7.18;4.15;;;;;;;;;;5060858;28;20025;-85
2023/01/21 04:20:58;;;;;;;3.55;1.95;;;;;;;;;;5065176;28;20473;-85
2023/01/21 04:23:24;;;;;;;4.20;3.20;;;;;;;;;;5061812;28;20033;-86
2023/01/21 04:25:50;;;;;;;3.97;1.92;;;;;;;;;;5065541;28;20469;-85
2023/01/21 04:28:16;;;;;;;7.25;3.40;;;;;;;;;;5062816;28;20086;-83
2023/01/21 04:30:41;;;;;;;4.13;2.78;;;;;;;;;;5066111;28;20473;-85
2023/01/21 04:33:07;;;;;;;5.78;4.18;;;;;;;;;;5066724;28;20028;-82
2023/01/21 04:35:35;;;;;;;4.28;2.13;;;;;;;;;;5064774;28;20058;-83
2023/01/21 04:38:01;;;;;;;6.43;2.58;;;;;;;;;;5060538;28;20119;-84
2023/01/21 04:40:26;;;;;;;5.07;3.17;;;;;;;;;;5063376;28;20055;-84
2023/01/21 04:42:52;;;;;;;2.85;2.10;;;;;;;;;;5062709;28;20024;-84
2023/01/21 04:45:17;;;;;;;5.90;2.47;;;;;;;;;;5063290;28;20029;-83
2023/01/21 04:47:43;;;;;;;11.23;5.72;;;;;;;;;;5058365;28;20066;-85
2023/01/21 04:50:10;;;;;;;6.65;2.92;;;;;;;;;;5058060;28;20508;-85
2023/01/21 04:52:36;;;;;;;3.53;2.75;;;;;;;;;;5061915;28;20032;-83
2023/01/21 04:55:02;;;;;;;4.90;2.10;;;;;;;;;;5063004;28;20052;-85
2023/01/21 04:57:27;;;;;;;1.77;1.60;;;;;;;;;;5057649;28;20052;-84
2023/01/21 04:59:52;;;;;;;2.47;2.28;;;;;;;;;;5058308;28;20037;-84
2023/01/21 05:02:18;;;;;;;2.92;2.67;;;;;;;;;;5065045;28;20020;-85
2023/01/21 05:04:43;;;;;;;4.18;2.28;;;;;;;;;;5054375;28;20663;-84
2023/01/21 05:07:10;;;;;;;1.38;1.27;;;;;;;;;;5060504;28;20155;-83
2023/01/21 05:09:36;;;;;;;2.92;1.40;;;;;;;;;;5058241;28;20025;-83
2023/01/21 05:12:01;;;;;;;2.45;1.38;;;;;;;;;;5058027;28;20109;-83
2023/01/21 05:14:27;;;;;;;1.88;1.67;;;;;;;;;;5064653;28;20028;-83
2023/01/21 05:16:52;;;;;;;3.72;3.35;;;;;;;;;;5064694;28;20025;-83
2023/01/21 05:19:17;;;;;;;7.95;2.67;;;;;;;;;;5056964;28;20049;-85
2023/01/21 05:21:43;;;;;;;3.97;2.88;;;;;;;;;;5060705;28;20083;-84
2023/01/21 05:24:08;;;;;;;3.15;2.65;;;;;;;;;;5065693;28;20021;-85
2023/01/21 05:26:34;;;;;;;6.38;4.13;;;;;;;;;;5065896;28;20052;-83
2023/01/21 05:28:59;;;;;;;2.80;2.30;;;;;;;;;;5060184;28;20040;-82
2023/01/21 05:31:25;;;;;;;3.75;3.25;;;;;;;;;;5051788;28;20064;-81
2023/01/21 05:33:50;;;;;;;4.72;2.47;;;;;;;;;;5052930;28;20020;-82
2023/01/21 05:36:15;;;;;;;2.08;1.88;;;;;;;;;;5055397;28;20455;-85
2023/01/21 05:38:41;;;;;;;4.25;2.58;;;;;;;;;;5058155;28;20029;-82
2023/01/21 05:41:06;;;;;;;2.35;1.70;;;;;;;;;;5053082;28;20033;-83
2023/01/21 05:43:32;;;;;;;5.97;2.10;;;;;;;;;;5056088;28;20040;-82
2023/01/21 05:45:58;;;;;;;3.60;2.97;;;;;;;;;;5058459;28;20095;-83
2023/01/21 05:48:24;;;;;;;2.83;1.33;;;;;;;;;;5054675;28;20048;-83
2023/01/21 05:50:50;;;;;;;3.17;2.00;;;;;;;;;;5058338;28;20048;-83
2023/01/21 05:53:16;;;;;;;1.55;1.30;;;;;;;;;;5059751;28;20082;-83
2023/01/21 05:55:42;;;;;;;3.20;1.90;;;;;;;;;;5058067;28;20029;-86
2023/01/21 05:58:07;;;;;;;3.72;2.47;;;;;;;;;;5062286;28;20035;-84
2023/01/21 06:00:33;;;;;;;1.80;1.48;;;;;;;;;;5055729;28;20033;-83
2023/01/21 06:03:00;;;;;;;2.78;1.25;;;;;;;;;;5058730;28;20044;-84
2023/01/21 06:05:26;;;;;;;3.88;1.92;;;;;;;;;;5055617;28;20063;-83
2023/01/21 06:07:52;;;;;;;1.40;1.30;;;;;;;;;;5052981;28;20051;-84
2023/01/21 06:10:17;;;;;;;2.67;2.03;;;;;;;;;;5055681;28;20033;-85
2023/01/21 06:12:43;;;;;;;1.95;1.40;;;;;;;;;;5058576;28;20027;-85
2023/01/21 06:15:08;;;;;;;2.30;1.52;;;;;;;;;;5060395;28;20028;-83
2023/01/21 06:17:39;;;;;;;2.15;1.38;;;;;;;;;;5053959;28;20030;-84
2023/01/21 06:20:05;;;;;;;1.83;1.60;;;;;;;;;;5051485;28;20025;-85
2023/01/21 06:22:30;;;;;;;4.00;1.92;;;;;;;;;;5061144;28;20024;-84
2023/01/21 06:24:56;;;;;;;1.77;1.35;;;;;;;;;;5057400;28;20028;-84
2023/01/21 06:27:21;;;;;;;3.20;2.80;;;;;;;;;;5054372;28;20100;-84
2023/01/21 06:29:46;;;;;;;3.83;1.88;;;;;;;;;;5060871;28;20025;-85
2023/01/21 06:32:12;;;;;;;15.55;2.30;;;;;;;;;;5054165;28;20024;-84
2023/01/21 06:34:37;;;;;;;3.65;1.65;;;;;;;;;;5056675;28;20488;-85
2023/01/21 06:37:03;;;;;;;5.90;2.55;;;;;;;;;;5056678;28;20042;-83
2023/01/21 06:39:28;;;;;;;1.30;1.20;;;;;;;;;;5058257;28;20052;-84
2023/01/21 06:41:53;;;;;;;2.60;1.77;;;;;;;;;;5064704;28;20036;-84
2023/01/21 06:44:20;;;;;;;5.85;3.03;;;;;;;;;;5061717;28;20032;-85
2023/01/21 06:46:45;;;;;;;3.33;1.58;;;;;;;;;;5056815;28;20756;-84
2023/01/21 06:49:11;;;;;;;2.97;2.28;;;;;;;;;;5059353;28;20033;-83
2023/01/21 06:51:36;;;;;;;2.97;2.55;;;;;;;;;;5065860;28;20036;-84
2023/01/21 06:54:01;;;;;;;3.58;1.67;;;;;;;;;;5058966;28;20028;-84
2023/01/21 06:56:27;;;;;;;3.00;2.38;;;;;;;;;;5064336;28;20539;-84
2023/01/21 06:58:52;;;;;;;4.32;2.30;;;;;;;;;;5060109;28;20029;-83
2023/01/21 07:01:18;;;;;;;2.92;1.85;;;;;;;;;;5060670;28;20092;-84
2023/01/21 07:03:43;;;;;;;2.17;1.98;;;;;;;;;;5062922;28;20077;-84
2023/01/21 07:06:09;;;;;;;5.13;2.00;;;;;;;;;;5062101;28;20381;-84
2023/01/21 07:08:34;;;;;;;5.60;3.55;;;;;;;;;;5067237;28;20021;-85
2023/01/21 07:11:00;;;;;;;7.32;2.65;;;;;;;;;;5057384;28;20021;-83
2023/01/21 07:13:25;;;;;;;6.60;2.20;;;;;;;;;;5062725;28;20051;-85
2023/01/21 07:15:51;;;;;;;1.92;1.45;;;;;;;;;;5063433;28;20028;-82
2023/01/21 07:18:16;;;;;;;2.83;2.17;;;;;;;;;;5066984;28;20025;-83
2023/01/21 07:20:42;;;;;;;2.25;1.58;;;;;;;;;;5058079;28;20496;-84
2023/01/21 07:23:07;;;;;;;1.30;1.20;;;;;;;;;;5064719;28;20356;-85
2023/01/21 07:25:34;;;;;;;1.42;1.33;;;;;;;;;;5063635;28;20031;-84
2023/01/21 07:28:00;;;;;;;2.83;2.05;;;;;;;;;;5061981;28;20389;-82
2023/01/21 07:30:26;;;;;;;3.83;2.92;;;;;;;;;;5059712;28;20028;-83
2023/01/21 07:32:51;;;;;;;4.50;1.42;;;;;;;;;;5060254;28;20028;-82
2023/01/21 07:35:16;;;;;;;2.78;2.58;;;;;;;;;;5060122;28;20024;-81
2023/01/21 07:37:42;;;;;;;1.63;1.52;;;;;;;;;;5062668;28;20021;-82
2023/01/21 07:40:08;;;;;;;2.17;1.67;;;;;;;;;;5064473;28;20028;-85
2023/01/21 07:42:33;;;;;;;1.95;1.83;;;;;;;;;;5060158;28;20082;-82
2023/01/21 07:45:01;;;;;;;2.78;1.92;;;;;;;;;;5062257;28;20031;-84
2023/01/21 07:47:28;;;;;;;2.03;1.63;;;;;;;;;;5063248;28;20059;-84
2023/01/21 07:49:53;;;;;;;2.40;1.55;;;;;;;;;;5061940;28;20103;-82
2023/01/21 07:52:18;;;;;;;2.42;2.22;;;;;;;;;;5058614;28;20112;-84
2023/01/21 07:54:45;;;;;;;1.65;1.55;;;;;;;;;;5059808;28;20078;-84
2023/01/21 07:57:10;;;;;;;3.05;2.47;;;;;;;;;;5062371;28;20040;-84
2023/01/21 07:59:36;;;;;;;5.50;2.10;;;;;;;;;;5057165;28;20021;-85
2023/01/21 08:02:01;;;;;;;2.22;2.03;;;;;;;;;;5061399;28;20025;-83
2023/01/21 08:04:27;;;;;;;11.60;5.45;;;;;;;;;;5062316;28;20029;-83
2023/01/21 08:06:55;;;;;;;2.33;2.10;;;;;;;;;;5061450;28;20032;-82
2023/01/21 08:09:23;;;;;;;2.70;2.13;;;;;;;;;;5060343;28;20024;-85
2023/01/21 08:11:48;;;;;;;4.93;2.80;;;;;;;;;;5059602;28;20052;-82
2023/01/21 08:14:14;;;;;;;4.85;2.63;;;;;;;;;;5060397;28;20059;-83
2023/01/21 08:16:39;;;;;;;5.82;2.95;;;;;;;;;;5058739;28;20036;-84
2023/01/21 08:19:05;;;;;;;2.75;2.55;;;;;;;;;;5061848;28;20025;-87
2023/01/21 08:21:30;;;;;;;0.93;0.68;;;;;;;;;;5058188;28;20031;-84
2023/01/21 08:23:55;;;;;;;2.13;1.48;;;;;;;;;;5059193;28;20439;-85
2023/01/21 08:26:21;;;;;;;1.75;1.25;;;;;;;;;;5061038;28;20056;-87
2023/01/21 08:28:46;;;;;;;1.30;0.93;;;;;;;;;;5054140;28;20031;-88
2023/01/21 08:31:12;;;;;;;0.90;0.85;;;;;;;;;;5062715;28;20025;-89
2023/01/21 08:33:38;;;;;;;1.02;0.93;;;;;;;;;;5062187;28;20028;-88
2023/01/21 08:36:05;;;;;;;2.63;1.95;;;;;;;;;;5063779;28;20404;-87
2023/01/21 08:38:31;;;;;;;5.45;2.83;;;;;;;;;;5058725;28;20018;-88
2023/01/21 08:40:57;;;;;;;3.97;2.58;;;;;;;;;;5063529;28;20028;-86
2023/01/21 08:43:23;;;;;;;2.08;1.55;;;;;;;;;;5060158;28;20099;-87
2023/01/21 08:45:49;;;;;;;3.13;2.30;;;;;;;;;;5064141;28;20122;-87
2023/01/21 08:48:14;;;;;;;4.13;1.75;;;;;;;;;;5062017;28;20496;-86
2023/01/21 08:50:43;;;;;;;3.72;1.75;;;;;;;;;;5058337;28;20029;-88
2023/01/21 08:53:10;;;;;;;1.13;1.02;;;;;;;;;;5063228;28;20432;-88
2023/01/21 08:55:35;;;;;;;1.23;0.88;;;;;;;;;;5058811;28;20029;-87
2023/01/21 08:58:00;;;;;;;1.27;1.02;;;;;;;;;;5058430;28;20033;-85
2023/01/21 09:00:26;;;;;;;1.50;0.88;;;;;;;;;;5060904;28;20031;-85
2023/01/21 09:02:51;;;;;;;0.88;0.85;;;;;;;;;;5062789;28;20021;-86
2023/01/21 09:05:17;;;;;;;2.28;1.35;;;;;;;;;;5060123;28;20098;-86
2023/01/21 09:07:44;;;;;;;1.38;1.23;;;;;;;;;;5060405;28;20109;-87
2023/01/21 09:10:10;;;;;;;14.48;1.50;;;;;;;;;;5055807;28;20086;-85
2023/01/21 09:12:37;;;;;;;0.60;0.55;;;;;;;;;;5063177;28;20024;-86
2023/01/21 09:15:03;;;;;;;1.83;1.70;;;;;;;;;;5053869;28;20025;-85
2023/01/21 09:17:29;;;;;;;0.85;0.68;;;;;;;;;;5051402;28;20079;-83
2023/01/21 09:19:54;;;;;;;1.33;1.00;;;;;;;;;;5051634;28;20416;-87
2023/01/21 09:22:19;;;;;;;1.10;0.90;;;;;;;;;;5057003;28;20031;-84
2023/01/21 09:24:45;;;;;;;0.93;0.88;;;;;;;;;;5057162;28;20430;-84
2023/01/21 09:27:10;;;;;;;0.95;0.88;;;;;;;;;;5057571;28;20027;-85
2023/01/21 09:29:36;;;;;;;1.90;1.30;;;;;;;;;;5057759;28;20032;-86
2023/01/21 09:32:03;;;;;;;1.92;1.30;;;;;;;;;;5054755;28;20108;-85
2023/01/21 09:34:29;;;;;;;1.38;1.10;;;;;;;;;;5056460;28;20472;-84
2023/01/21 09:36:54;;;;;;;0.93;0.82;;;;;;;;;;5056540;28;20123;-84
2023/01/21 09:39:20;;;;;;;1.48;1.15;;;;;;;;;;5055715;28;20110;-84
2023/01/21 09:41:51;;;;;;;2.13;1.45;;;;;;;;;;5051185;28;20025;-86
2023/01/21 09:44:28;;;;;;;1.33;1.02;;;;;;;;;;5056813;28;20020;-85
2023/01/21 09:47:15;;;;;;;1.55;1.15;;;;;;;;;;5059614;28;20052;-84
2023/01/21 09:49:51;;;;;;;0.52;0.52;;;;;;;;;;5055507;28;20806;-87
2023/01/21 09:52:26;;;;;;;1.45;1.00;;;;;;;;;;5049628;28;20094;-85
2023/01/21 09:54:53;;;;;;;1.00;0.90;;;;;;;;;;5054482;28;20033;-88
2023/01/21 09:57:30;;;;;;;1.38;1.20;;;;;;;;;;5058518;28;20481;-87
2023/01/21 10:00:26;;;;;;;1.60;1.15;;;;;;;;;;5059716;28;20024;-87
2023/01/21 10:02:57;;;;;;;0.60;0.60;;;;;;;;;;5060720;28;20059;-87
2023/01/21 10:05:23;;;;;;;0.77;0.75;;;;;;;;;;5058789;28;20021;-86
2023/01/21 10:08:39;;;;;;;0.63;0.63;;;;;;;;;;5059985;28;20070;-86
2023/01/21 10:11:36;;;;;;;1.83;1.15;;;;;;;;;;5016223;28;20056;-84
2023/01/21 10:14:44;;;;;;;1.92;0.73;;;;;;;;;;5019888;28;20124;-86
2023/01/21 10:17:20;;;;;;;0.85;0.75;;;;;;;;;;5061536;28;20032;-85
2023/01/21 10:20:04;;;;;;;1.35;0.98;;;;;;;;;;5060626;28;20024;-84
2023/01/21 10:22:30;;;;;;;1.95;1.08;;;;;;;;;;5060040;28;20035;-85
2023/01/21 10:25:01;;;;;;;1.95;1.10;;;;;;;;;;5057224;28;20029;-87
2023/01/21 10:27:31;;;;;;;0.98;0.88;;;;;;;;;;5059720;28;20094;-86
2023/01/21 10:30:04;;;;;;;2.13;1.33;;;;;;;;;;5055876;28;20480;-87
2023/01/21 10:32:32;;;;;;;1.90;1.52;;;;;;;;;;5055434;28;20036;-85
2023/01/21 10:34:57;;;;;;;1.23;1.00;;;;;;;;;;5057397;28;20021;-86
2023/01/21 10:37:35;;;;;;;1.85;0.98;;;;;;;;;;5065993;28;20070;-83
2023/01/21 10:40:41;;;;;;;1.63;0.90;;;;;;;;;;5065915;28;20473;-87
2023/01/21 10:43:11;;;;;;;0.52;0.52;;;;;;;;;;5058400;28;20055;-85
2023/01/21 10:46:06;;;;;;;0.40;0.40;;;;;;;;;;5062082;28;20045;-85
2023/01/21 10:49:00;;;;;;;0.70;0.63;;;;;;;;;;5059484;28;20021;-84
2023/01/21 10:51:29;;;;;;;0.55;0.52;;;;;;;;;;5060385;28;20095;-85
2023/01/21 10:54:17;;;;;;;1.85;0.90;;;;;;;;;;5062104;28;20033;-84
2023/01/21 10:57:12;;;;;;;0.95;0.50;;;;;;;;;;5060683;28;20035;-85
2023/01/21 10:59:39;;;;;;;1.08;0.85;;;;;;;;;;5064435;28;20052;-86
2023/01/21 11:02:07;;;;;;;1.08;0.90;;;;;;;;;;5059365;28;20036;-84
2023/01/21 11:04:34;;;;;;;1.05;0.63;;;;;;;;;;5060912;28;20020;-83
2023/01/21 11:07:02;;;;;;;0.80;0.65;;;;;;;;;;5062566;28;20100;-84
2023/01/21 11:09:31;;;;;;;1.55;0.80;;;;;;;;;;5066633;28;20465;-85
2023/01/21 11:11:57;;;;;;;1.05;0.95;;;;;;;;;;5052648;28;20104;-85
2023/01/21 11:14:26;;;;;;;6.03;1.48;;;;;;;;;;5057930;28;20113;-85
2023/01/21 11:16:53;;;;;;;5.07;1.40;;;;;;;;;;5064991;28;20389;-85
2023/01/21 11:19:21;;;;;;;0.95;0.90;;;;;;;;;;5062112;28;20483;-85
2023/01/21 11:22:00;;;;;;;3.55;1.40;;;;;;;;;;5065172;28;20037;-85
2023/01/21 11:24:28;;;;;;;0.98;0.82;;;;;;;;;;5060239;28;20028;-88
2023/01/21 11:27:02;;;;;;;0.75;0.50;;;;;;;;;;5055167;28;20032;-86
2023/01/21 11:29:39;;;;;;;2.35;1.52;;;;;;;;;;5060194;28;20103;-86
2023/01/21 11:32:17;;;;;;;0.65;0.57;;;;;;;;;;5063020;28;20549;-87
2023/01/21 11:34:44;;;;;;;1.00;0.88;;;;;;;;;;5053500;28;20700;-89
2023/01/21 11:37:23;;;;;;;1.15;0.77;;;;;;;;;;5055066;28;20021;-88
2023/01/21 11:40:05;;;;;;;2.53;0.60;;;;;;;;;;5061882;28;20103;-88
2023/01/21 11:42:31;;;;;;;0.80;0.80;;;;;;;;;;5064125;28;20452;-87
2023/01/21 11:45:00;;;;;;;0.57;0.45;;;;;;;;;;5058123;28;20056;-88
2023/01/21 11:47:46;;;;;;;1.27;1.10;;;;;;;;;;5059094;28;20037;-89
2023/01/21 11:50:16;;;;;;;1.10;1.00;;;;;;;;;;5062527;28;20901;-88
2023/01/21 11:52:42;;;;;;;1.10;0.75;;;;;;;;;;5061425;28;20035;-85
2023/01/21 11:55:23;;;;;;;2.13;1.00;;;;;;;;;;5058524;28;20408;-87
2023/01/21 11:57:57;;;;;;;1.20;0.85;;;;;;;;;;5062201;28;20088;-86
2023/01/21 12:00:25;;;;;;;1.20;1.05;;;;;;;;;;5063516;28;20025;-85
2023/01/21 12:02:56;;;;;;;0.38;0.38;;;;;;;;;;5058607;28;20025;-86
2023/01/21 12:05:29;;;;;;;1.45;1.00;;;;;;;;;;5054728;28;20107;-88
2023/01/21 12:07:55;;;;;;;0.60;0.55;;;;;;;;;;5068690;28;20024;-87
2023/01/21 12:10:41;;;;;;;0.75;0.75;;;;;;;;;;5060838;28;20021;-87
2023/01/21 12:13:21;;;;;;;1.35;1.00;;;;;;;;;;5067388;28;20041;-88
2023/01/21 12:16:05;;;;;;;1.67;0.98;;;;;;;;;;5063944;28;20034;-86
2023/01/21 12:19:08;;;;;;;1.00;0.93;;;;;;;;;;5053135;28;20105;-90
2023/01/21 12:21:54;;;;;;;1.75;0.80;;;;;;;;;;5062099;28;20024;-88
2023/01/21 12:25:04;;;;;;;1.27;0.93;;;;;;;;;;5067644;28;20503;-87
2023/01/21 12:27:54;;;;;;;0.98;0.73;;;;;;;;;;5062719;28;20021;-89
2023/01/21 12:30:31;;;;;;;0.57;0.55;;;;;;;;;;5059027;28;20036;-88
2023/01/21 12:33:09;;;;;;;1.58;0.93;;;;;;;;;;5057257;28;20078;-89
2023/01/21 12:35:52;;;;;;;3.42;1.27;;;;;;;;;;5064846;28;20043;-89
2023/01/21 12:38:20;;;;;;;1.52;1.02;;;;;;;;;;5061690;28;20030;-89
2023/01/21 12:40:55;;;;;;;1.60;1.17;;;;;;;;;;5068159;28;20031;-91
2023/01/21 12:43:36;;;;;;;1.23;0.90;;;;;;;;;;5059819;28;20048;-87
2023/01/21 12:46:31;;;;;;;3.13;1.25;;;;;;;;;;5056803;28;20378;-88
2023/01/21 12:49:18;;;;;;;1.63;1.10;;;;;;;;;;5061827;28;20100;-87
2023/01/21 12:51:48;;;;;;;1.83;1.15;;;;;;;;;;5060863;28;20087;-86
2023/01/21 12:54:26;;;;;;;1.98;1.10;;;;;;;;;;5061962;28;20028;-88
2023/01/21 12:57:03;;;;;;;1.55;1.13;;;;;;;;;;5058697;28;20845;-88
2023/01/21 12:59:48;;;;;;;1.40;1.25;;;;;;;;;;5060475;28;20036;-87
2023/01/21 13:02:32;;;;;;;2.22;1.10;;;;;;;;;;5060147;28;20032;-88
2023/01/21 13:05:09;;;;;;;0.80;0.80;;;;;;;;;;5062905;28;20048;-87
2023/01/21 13:08:02;;;;;;;1.42;1.08;;;;;;;;;;5058148;28;20082;-88
2023/01/21 13:10:33;;;;;;;2.03;1.02;;;;;;;;;;5058435;28;20029;-85
2023/01/21 13:13:10;;;;;;;1.20;0.75;;;;;;;;;;5063365;28;20045;-85
2023/01/21 13:15:37;;;;;;;1.80;0.75;;;;;;;;;;5061360;28;20028;-85
2023/01/21 13:18:11;;;;;;;0.93;0.80;;;;;;;;;;5059864;28;20029;-87
2023/01/21 13:20:40;;;;;;;1.08;0.93;;;;;;;;;;5058432;28;20411;-88
2023/01/21 13:23:25;;;;;;;1.30;0.88;;;;;;;;;;5058449;28;20028;-83
2023/01/21 13:26:02;;;;;;;0.70;0.55;;;;;;;;;;5058845;28;20125;-88
2023/01/21 13:28:52;;;;;;;0.65;0.65;;;;;;;;;;5056486;28;20020;-88
2023/01/21 13:31:35;;;;;;;0.95;0.50;;;;;;;;;;5053521;28;20048;-87
2023/01/21 13:34:19;;;;;;;2.53;1.33;;;;;;;;;;5062159;28;20116;-86
2023/01/21 13:37:03;;;;;;;1.20;1.05;;;;;;;;;;5056796;28;20044;-86
2023/01/21 13:39:45;;;;;;;1.50;0.98;;;;;;;;;;5056646;28;20032;-88
2023/01/21 13:42:31;;;;;;;1.10;0.93;;;;;;;;;;5060385;28;20029;-90
2023/01/21 13:45:06;;;;;;;0.60;0.60;;;;;;;;;;5056357;28;20021;-90
2023/01/21 13:48:02;;;;;;;0.95;0.80;;;;;;;;;;5055932;28;20095;-86
2023/01/21 13:50:27;;;;;;;1.10;1.00;;;;;;;;;;5057990;28;20028;-85
2023/01/21 13:53:12;;;;;;;2.05;1.23;;;;;;;;;;5059684;28;20477;-85
2023/01/21 13:56:31;;;;;;;1.50;1.33;;;;;;;;;;5059296;28;20036;-85
2023/01/21 13:59:08;;;;;;;0.77;0.77;;;;;;;;;;5038282;28;20473;-85
2023/01/21 14:01:48;;;;;;;2.47;1.30;;;;;;;;;;5055612;28;20029;-86
2023/01/21 14:04:39;;;;;;;1.02;0.75;;;;;;;;;;5058394;28;20100;-88
2023/01/21 14:07:07;;;;;;;2.35;1.33;;;;;;;;;;5058673;28;20385;-87
2023/01/21 14:09:41;;;;;;;1.70;1.13;;;;;;;;;;5057368;28;20040;-87
2023/01/21 14:12:21;;;;;;;1.25;1.08;;;;;;;;;;5059057;28;20446;-86
2023/01/21 14:15:13;;;;;;;4.22;1.70;;;;;;;;;;5059805;28;20475;-87
2023/01/21 14:18:12;;;;;;;2.13;1.05;;;;;;;;;;5056291;28;20111;-87
2023/01/21 14:21:03;;;;;;;1.38;1.10;;;;;;;;;;5058906;28;20029;-86
2023/01/21 14:23:52;;;;;;;2.67;1.17;;;;;;;;;;5057627;28;20032;-86
2023/01/21 14:26:43;;;;;;;3.03;1.20;;;;;;;;;;5063037;28;20024;-87
2023/01/21 14:29:45;;;;;;;0.93;0.68;;;;;;;;;;5047883;28;20024;-87
2023/01/21 14:32:34;;;;;;;1.15;1.05;;;;;;;;;;5057888;28;20021;-86
2023/01/21 14:35:27;;;;;;;4.60;2.78;;;;;;;;;;5061831;28;20488;-87
2023/01/21 14:37:58;;;;;;;3.55;2.03;;;;;;;;;;5062317;28;20023;-86
2023/01/21 14:40:34;;;;;;;2.03;1.38;;;;;;;;;;5059514;28;20029;-84
2023/01/21 14:42:59;;;;;;;2.05;1.02;;;;;;;;;;5058209;28;20040;-89
2023/01/21 14:45:48;;;;;;;2.35;1.13;;;;;;;;;;5058911;28;20370;-86
2023/01/21 14:48:33;;;;;;;1.15;0.90;;;;;;;;;;5051872;28;20030;-85
2023/01/21 14:51:11;;;;;;;0.85;0.77;;;;;;;;;;5056265;28;20564;-85
2023/01/21 14:53:45;;;;;;;0.93;0.52;;;;;;;;;;5058772;28;20105;-86
2023/01/21 14:56:53;;;;;;;0.98;0.70;;;;;;;;;;5058152;28;20432;-84
2023/01/21 14:59:34;;;;;;;1.05;0.95;;;;;;;;;;5015207;28;20212;-87
2023/01/21 15:02:03;;;;;;;1.10;0.80;;;;;;;;;;5056439;28;20436;-84
2023/01/21 15:04:33;;;;;;;1.88;1.40;;;;;;;;;;5060658;28;20025;-84
2023/01/21 15:07:05;;;;;;;1.15;0.77;;;;;;;;;;5061123;28;20112;-86
2023/01/21 15:09:35;;;;;;;1.65;0.70;;;;;;;;;;5061763;28;20032;-85
2023/01/21 15:12:05;;;;;;;1.17;1.08;;;;;;;;;;5063146;28;20468;-87
2023/01/21 15:14:35;;;;;;;;;;;;;;;;;;5058840;28;20078;-84
2023/01/21 15:17:02;;;;;;;1.48;1.25;;;;;;;;;;5063859;28;20413;-82